Canyon City, Oregon
Current Conditions -  °F | °C
As of 6:35 PM on Friday 28 Nov 2014 (Local Time) from KGCD Reporting Station
Overcast Overcast  
Wind Chill: 45°   Ceiling: 4700
Heat Index: 49°   Visibility: 10mi
Dew Point: 37°   Wind: 10mph
Humidity: 63%   Direction: 200°SSW
Pressure: 29.58"   Gusts: 17mph
Location:  44.39°N, 118.95°W
Report Text: KGCD 290235Z AUTO 20009G15KT 10SM BKN047 OVC055 10/03 A2958 RMK AO2 T00970029
Loading
Personal Weather Stations






























Interactive Weather Map New forecast layout! Learn more

10-Day Weather Forecast

Advertisements
Track Severe Weather on mobile